Time;durP1;ratioP1;P1;durP2;ratioP2;P2;SDS_P1;SDS_P2;PMS_P1;PMS_P2;Temp;Humidity;BMP_temperature;BMP_pressure;BME280_temperature;BME280_humidity;BME280_pressure;Samples;Min_cycle;Max_cycle;Signal;HPM_P1;HPM_P2
2021/09/21 00:00:01;;;;;;;4.20;3.30;;;16.70;59.20;;;;;;5096391;28;20447;-75
2021/09/21 00:02:29;;;;;;;3.93;3.40;;;16.70;59.00;;;;;;5096177;28;20476;-75
2021/09/21 00:04:55;;;;;;;3.50;3.20;;;16.70;59.20;;;;;;5096304;28;20454;-75
2021/09/21 00:07:22;;;;;;;4.10;3.73;;;16.70;59.30;;;;;;5096138;28;20448;-75
2021/09/21 00:09:49;;;;;;;3.77;3.33;;;16.70;59.10;;;;;;5095346;28;20450;-75
2021/09/21 00:12:16;;;;;;;5.30;3.80;;;16.70;59.00;;;;;;5095844;28;20468;-75
2021/09/21 00:14:42;;;;;;;5.10;3.73;;;16.70;59.40;;;;;;5096024;28;20959;-75
2021/09/21 00:17:09;;;;;;;3.60;3.27;;;16.70;59.50;;;;;;5096132;28;20455;-75
2021/09/21 00:19:37;;;;;;;4.10;3.57;;;16.70;59.30;;;;;;5096036;28;20463;-75
2021/09/21 00:22:04;;;;;;;3.73;3.43;;;16.70;59.40;;;;;;5095959;28;20474;-75
2021/09/21 00:24:31;;;;;;;10.50;3.90;;;16.70;59.40;;;;;;5096100;28;20443;-75
2021/09/21 00:26:58;;;;;;;5.00;3.57;;;16.60;59.40;;;;;;5095678;28;20447;-75
2021/09/21 00:29:25;;;;;;;6.20;3.80;;;16.60;59.40;;;;;;5096045;28;20440;-75
2021/09/21 00:31:59;;;;;;;3.70;3.40;;;16.60;59.30;;;;;;5095828;28;20795;-75
2021/09/21 00:34:28;;;;;;;3.30;3.07;;;16.60;59.50;;;;;;5095892;28;20842;-75
2021/09/21 00:36:56;;;;;;;5.20;3.70;;;16.60;59.60;;;;;;5095341;28;20515;-75
2021/09/21 00:39:23;;;;;;;3.63;3.33;;;16.60;59.90;;;;;;5095708;28;20210;-75
2021/09/21 00:41:50;;;;;;;6.97;4.53;;;16.60;59.80;;;;;;5095549;28;20447;-75
2021/09/21 00:44:20;;;;;;;5.60;4.10;;;16.60;59.90;;;;;;5096355;28;20444;-75
2021/09/21 00:46:46;;;;;;;4.07;3.67;;;16.60;60.00;;;;;;5095055;28;20448;-75
2021/09/21 00:49:13;;;;;;;3.93;3.60;;;16.50;60.00;;;;;;5095346;28;20435;-75
2021/09/21 00:51:40;;;;;;;4.50;3.83;;;16.50;59.80;;;;;;5095357;28;20458;-75
2021/09/21 00:54:09;;;;;;;6.70;4.20;;;16.50;60.00;;;;;;5095326;28;20444;-75
2021/09/21 00:56:37;;;;;;;5.63;4.20;;;16.50;60.20;;;;;;5095415;28;20424;-75
2021/09/21 00:59:04;;;;;;;9.33;3.57;;;16.50;60.40;;;;;;5095110;28;20480;-75
2021/09/21 01:01:31;;;;;;;4.20;3.80;;;16.50;60.50;;;;;;5095234;28;20455;-75
2021/09/21 01:03:58;;;;;;;6.20;3.80;;;16.50;60.80;;;;;;5094674;28;20479;-75
2021/09/21 01:06:24;;;;;;;5.23;3.80;;;16.50;60.50;;;;;;5095157;28;20463;-75
2021/09/21 01:08:51;;;;;;;4.80;4.40;;;16.50;60.50;;;;;;5095321;28;20435;-75
2021/09/21 01:11:19;;;;;;;4.70;4.10;;;16.50;60.60;;;;;;5095397;28;20452;-75
2021/09/21 01:13:46;;;;;;;3.60;3.30;;;16.50;60.60;;;;;;5095538;28;20460;-75
2021/09/21 01:16:12;;;;;;;6.10;3.83;;;16.50;60.60;;;;;;5095263;28;20443;-75
2021/09/21 01:18:39;;;;;;;5.87;3.43;;;16.40;60.60;;;;;;5094575;28;20991;-75
2021/09/21 01:21:08;;;;;;;5.37;4.13;;;16.50;60.60;;;;;;5093713;28;20462;-75
2021/09/21 01:23:45;;;;;;;5.47;4.10;;;16.50;60.50;;;;;;5094904;28;20551;-75
2021/09/21 01:26:11;;;;;;;4.20;3.63;;;16.50;60.70;;;;;;5094990;28;20423;-74
2021/09/21 01:28:38;;;;;;;4.83;3.90;;;16.50;60.70;;;;;;5094570;28;20959;-75
2021/09/21 01:31:05;;;;;;;5.80;4.47;;;16.50;60.70;;;;;;5094648;28;20438;-74
2021/09/21 01:33:32;;;;;;;6.07;4.83;;;16.50;60.90;;;;;;5094521;28;20460;-74
2021/09/21 01:35:59;;;;;;;4.13;3.73;;;16.50;61.00;;;;;;5094258;28;20455;-74
2021/09/21 01:38:25;;;;;;;5.97;4.30;;;16.50;61.10;;;;;;5094516;28;20994;-76
2021/09/21 01:40:54;;;;;;;6.30;4.40;;;16.50;61.20;;;;;;5094187;28;20450;-75
2021/09/21 01:43:21;;;;;;;6.50;5.80;;;16.50;61.50;;;;;;5094340;28;20467;-75
2021/09/21 01:45:48;;;;;;;5.47;4.80;;;16.50;61.90;;;;;;5094048;28;20959;-76
2021/09/21 01:48:14;;;;;;;7.60;5.03;;;16.50;62.10;;;;;;5094237;28;20444;-74
2021/09/21 01:50:46;;;;;;;7.07;5.20;;;16.50;62.40;;;;;;5094026;28;20428;-75
2021/09/21 01:53:20;;;;;;;5.30;4.80;;;16.40;62.30;;;;;;5094737;28;20479;-74
2021/09/21 01:58:47;;;;;;;6.27;4.43;;;16.40;63.00;;;;;;5094175;28;20924;-76
2021/09/21 02:01:14;;;;;;;5.40;4.73;;;16.40;63.10;;;;;;5094113;28;20438;-76
2021/09/21 02:03:42;;;;;;;7.00;4.63;;;16.40;63.10;;;;;;5093653;28;20483;-76
2021/09/21 02:06:09;;;;;;;4.63;4.03;;;16.40;63.10;;;;;;5094028;28;20547;-76
2021/09/21 02:08:36;;;;;;;7.70;5.10;;;16.40;63.10;;;;;;5093952;28;20444;-76
2021/09/21 02:11:03;;;;;;;4.50;4.20;;;16.40;63.00;;;;;;5093608;28;20901;-76
2021/09/21 02:13:31;;;;;;;4.83;4.43;;;16.30;62.90;;;;;;5093487;28;21114;-76
2021/09/21 02:15:59;;;;;;;5.87;3.90;;;16.40;63.10;;;;;;5093611;28;20425;-76
2021/09/21 02:18:26;;;;;;;4.60;4.17;;;16.30;62.80;;;;;;5093708;28;20447;-74
2021/09/21 02:20:53;;;;;;;6.70;4.40;;;16.40;63.10;;;;;;5093770;28;20545;-75
2021/09/21 02:23:21;;;;;;;6.63;4.97;;;16.30;63.10;;;;;;5093698;28;20460;-76
2021/09/21 02:25:48;;;;;;;5.13;4.63;;;16.40;64.20;;;;;;5093406;28;20929;-76
2021/09/21 02:28:15;;;;;;;4.80;4.40;;;16.40;63.50;;;;;;5093420;28;20455;-75
2021/09/21 02:30:43;;;;;;;5.33;4.83;;;16.30;63.50;;;;;;5093685;28;20448;-75
2021/09/21 02:33:12;;;;;;;5.13;4.47;;;16.30;63.70;;;;;;5093261;28;20459;-74
2021/09/21 02:35:39;;;;;;;5.53;4.57;;;16.30;64.00;;;;;;5093379;28;20932;-74
2021/09/21 02:38:06;;;;;;;5.17;4.77;;;16.20;63.90;;;;;;5093609;28;20807;-75
2021/09/21 02:40:33;;;;;;;6.80;4.70;;;16.30;63.50;;;;;;5093204;28;20476;-75
2021/09/21 02:43:00;;;;;;;5.57;5.07;;;16.30;63.50;;;;;;5093274;28;20475;-75
2021/09/21 02:45:27;;;;;;;6.27;5.67;;;16.30;63.30;;;;;;5093567;28;20809;-75
2021/09/21 02:47:55;;;;;;;6.13;5.43;;;16.20;63.30;;;;;;5093208;28;20960;-75
2021/09/21 02:50:22;;;;;;;6.20;5.47;;;16.20;63.20;;;;;;5093578;28;20486;-75
2021/09/21 02:52:48;;;;;;;6.30;5.30;;;16.20;63.20;;;;;;5093477;28;20476;-75
2021/09/21 02:55:15;;;;;;;5.47;4.97;;;16.20;63.20;;;;;;5093408;28;20444;-76
2021/09/21 02:57:42;;;;;;;5.87;5.33;;;16.20;63.20;;;;;;5093205;28;20813;-74
2021/09/21 03:00:11;;;;;;;5.80;5.30;;;16.20;63.20;;;;;;5093442;28;20479;-75
2021/09/21 03:02:39;;;;;;;8.43;5.27;;;16.20;63.20;;;;;;5093170;28;20475;-75
2021/09/21 03:05:11;;;;;;;7.00;6.30;;;16.20;63.80;;;;;;5093505;28;20448;-74
2021/09/21 03:07:39;;;;;;;5.77;5.27;;;16.20;63.90;;;;;;5093674;28;20522;-74
2021/09/21 03:10:19;;;;;;;5.60;5.07;;;16.20;63.80;;;;;;5093230;28;20889;-75
2021/09/21 03:13:15;;;;;;;5.67;4.93;;;16.20;63.80;;;;;;5093366;28;20467;-75
2021/09/21 03:18:27;;;;;;;5.70;5.10;;;16.20;63.90;;;;;;5093490;28;20404;-75
2021/09/21 03:20:55;;;;;;;6.77;5.50;;;16.20;63.80;;;;;;5093221;28;20487;-75
2021/09/21 03:23:22;;;;;;;5.53;5.03;;;16.20;63.80;;;;;;5093309;28;20460;-75
2021/09/21 03:25:48;;;;;;;7.40;5.37;;;16.20;64.20;;;;;;5093339;28;20451;-75
2021/09/21 03:28:15;;;;;;;5.47;4.50;;;16.10;64.00;;;;;;5093247;28;20440;-75
2021/09/21 03:30:42;;;;;;;5.63;5.20;;;16.10;64.20;;;;;;5093184;28;20436;-75
2021/09/21 03:33:09;;;;;;;8.33;5.13;;;16.10;64.30;;;;;;5093187;28;20474;-75
2021/09/21 03:35:36;;;;;;;7.23;4.90;;;16.10;64.40;;;;;;5093229;28;20447;-75
2021/09/21 03:38:04;;;;;;;5.40;4.57;;;16.10;64.70;;;;;;5093696;28;20450;-74
2021/09/21 03:40:31;;;;;;;5.50;5.00;;;16.10;64.80;;;;;;5093167;28;20476;-74
2021/09/21 03:42:58;;;;;;;6.00;5.40;;;16.00;64.70;;;;;;5093013;28;20467;-76
2021/09/21 03:45:26;;;;;;;5.27;4.77;;;16.00;65.20;;;;;;5095169;28;20933;-74
2021/09/21 03:47:53;;;;;;;5.70;4.87;;;16.00;65.30;;;;;;5096614;28;20448;-75
2021/09/21 03:50:20;;;;;;;5.87;5.30;;;16.00;65.70;;;;;;5097404;28;20447;-76
2021/09/21 03:52:47;;;;;;;5.80;5.20;;;16.00;66.10;;;;;;5097565;28;20467;-75
2021/09/21 03:55:16;;;;;;;7.27;6.10;;;15.90;66.10;;;;;;5097188;28;20447;-76
2021/09/21 03:57:43;;;;;;;6.13;5.53;;;15.90;66.20;;;;;;5097165;28;20502;-74
2021/09/21 04:00:11;;;;;;;6.10;5.60;;;15.90;66.40;;;;;;5097070;28;20476;-75
2021/09/21 04:02:38;;;;;;;7.83;5.70;;;15.90;66.20;;;;;;5097500;28;20471;-76
2021/09/21 04:05:06;;;;;;;6.17;5.67;;;15.90;66.40;;;;;;5096584;28;20444;-74
2021/09/21 04:07:33;;;;;;;5.33;4.87;;;15.90;66.50;;;;;;5096446;28;20956;-75
2021/09/21 04:10:00;;;;;;;6.40;5.90;;;15.90;66.40;;;;;;5096344;28;20439;-76
2021/09/21 04:12:28;;;;;;;11.47;5.70;;;15.90;66.70;;;;;;5095901;28;20464;-76
2021/09/21 04:14:55;;;;;;;8.37;5.83;;;15.90;66.70;;;;;;5096223;28;20450;-75
2021/09/21 04:17:21;;;;;;;7.50;6.13;;;15.90;66.70;;;;;;5096010;28;20440;-75
2021/09/21 04:19:48;;;;;;;6.37;5.77;;;15.80;66.70;;;;;;5095604;28;20483;-74
2021/09/21 04:22:15;;;;;;;6.83;5.60;;;15.80;66.80;;;;;;5095534;28;21193;-74
2021/09/21 04:24:42;;;;;;;8.33;6.20;;;15.80;66.80;;;;;;5095829;28;20443;-75
2021/09/21 04:27:08;;;;;;;9.27;6.47;;;15.80;66.80;;;;;;5095451;28;20444;-74
2021/09/21 04:29:36;;;;;;;8.77;7.87;;;15.80;67.00;;;;;;5096653;28;20432;-75
2021/09/21 04:32:04;;;;;;;9.73;7.73;;;15.80;67.10;;;;;;5095682;28;20475;-74
2021/09/21 04:34:31;;;;;;;10.93;8.47;;;15.80;67.30;;;;;;5095685;28;20450;-75
2021/09/21 04:36:58;;;;;;;9.50;8.60;;;15.80;67.30;;;;;;5095834;28;20450;-75
2021/09/21 04:39:25;;;;;;;10.60;8.87;;;15.80;67.30;;;;;;5095267;28;20475;-76
2021/09/21 04:41:52;;;;;;;11.40;9.37;;;15.70;67.40;;;;;;5095789;28;20448;-76
2021/09/21 04:44:19;;;;;;;8.37;7.53;;;15.70;67.70;;;;;;5095273;28;20944;-76
2021/09/21 04:46:47;;;;;;;8.50;7.60;;;15.70;67.90;;;;;;5095559;28;20444;-76
2021/09/21 04:49:14;;;;;;;7.23;6.60;;;15.70;67.90;;;;;;5095874;28;20909;-75
2021/09/21 04:51:41;;;;;;;10.17;7.33;;;15.70;67.90;;;;;;5095029;28;20933;-76
2021/09/21 04:54:08;;;;;;;5.90;5.30;;;15.70;67.90;;;;;;5094931;28;20474;-75
2021/09/21 04:56:35;;;;;;;7.13;5.30;;;15.60;68.00;;;;;;5095832;28;20436;-75
2021/09/21 04:59:02;;;;;;;6.87;5.67;;;15.70;68.20;;;;;;5095066;28;20442;-75
2021/09/21 05:01:29;;;;;;;9.93;5.60;;;15.60;68.30;;;;;;5094959;28;20486;-75
2021/09/21 05:03:57;;;;;;;5.53;4.97;;;15.60;68.30;;;;;;5094706;28;20478;-75
2021/09/21 05:06:23;;;;;;;5.70;4.80;;;15.60;68.40;;;;;;5095681;28;20455;-74
2021/09/21 05:08:51;;;;;;;6.57;5.00;;;15.60;68.50;;;;;;5094647;28;20937;-74
2021/09/21 05:11:17;;;;;;;5.60;5.10;;;15.50;68.60;;;;;;5094777;28;20432;-74
2021/09/21 05:13:44;;;;;;;11.50;5.60;;;15.50;68.70;;;;;;5094912;28;20474;-73
2021/09/21 05:16:11;;;;;;;8.73;5.70;;;15.50;68.70;;;;;;5094859;28;20432;-73
2021/09/21 05:18:38;;;;;;;7.70;5.20;;;15.50;68.80;;;;;;5094546;28;20431;-73
2021/09/21 05:21:06;;;;;;;8.63;5.80;;;15.50;68.80;;;;;;5094806;28;20474;-73
2021/09/21 05:23:33;;;;;;;10.10;5.50;;;15.50;68.60;;;;;;5094487;28;20467;-73
2021/09/21 05:26:00;;;;;;;6.20;5.20;;;15.50;68.60;;;;;;5095711;28;20780;-73
2021/09/21 05:28:27;;;;;;;7.80;5.10;;;15.50;68.70;;;;;;5094700;28;20458;-73
2021/09/21 05:30:53;;;;;;;5.67;4.67;;;15.50;68.50;;;;;;5095537;28;20424;-73
2021/09/21 05:33:20;;;;;;;6.67;5.87;;;15.50;68.60;;;;;;5094498;28;20460;-73
2021/09/21 05:35:47;;;;;;;12.63;6.00;;;15.40;68.80;;;;;;5094664;28;20440;-73
2021/09/21 05:38:15;;;;;;;7.00;4.80;;;15.40;69.10;;;;;;5094484;28;20444;-73
2021/09/21 05:40:42;;;;;;;7.07;6.37;;;15.40;69.10;;;;;;5094554;28;20491;-73
2021/09/21 05:43:09;;;;;;;6.43;5.73;;;15.40;69.00;;;;;;5094360;28;20816;-74
2021/09/21 05:45:35;;;;;;;6.07;5.10;;;15.40;68.70;;;;;;5093923;28;20443;-72
2021/09/21 05:48:02;;;;;;;7.97;6.00;;;15.40;68.70;;;;;;5093913;28;20902;-73
2021/09/21 05:50:29;;;;;;;7.83;5.40;;;15.40;68.70;;;;;;5094222;28;20431;-72
2021/09/21 05:52:56;;;;;;;6.30;5.70;;;15.40;68.70;;;;;;5094077;28;20463;-73
2021/09/21 05:55:25;;;;;;;10.60;5.60;;;15.40;68.40;;;;;;5094006;28;20440;-72
2021/09/21 05:57:51;;;;;;;5.37;4.80;;;15.30;68.40;;;;;;5094003;28;20512;-72
2021/09/21 06:00:19;;;;;;;6.17;5.57;;;15.30;68.40;;;;;;5093898;28;20482;-73
2021/09/21 06:02:46;;;;;;;6.10;5.40;;;15.30;68.40;;;;;;5093503;28;20486;-73
2021/09/21 06:05:13;;;;;;;7.10;5.77;;;15.30;68.30;;;;;;5093637;28;20949;-72
2021/09/21 06:07:47;;;;;;;6.80;5.47;;;15.20;68.50;;;;;;5093471;28;20859;-72
2021/09/21 06:10:14;;;;;;;8.13;6.20;;;15.10;68.70;;;;;;5093553;28;20955;-73
2021/09/21 06:12:42;;;;;;;6.90;5.23;;;15.10;69.00;;;;;;5093725;28;20475;-73
2021/09/21 06:15:10;;;;;;;6.90;5.80;;;15.10;69.30;;;;;;5094027;28;20439;-73
2021/09/21 06:17:37;;;;;;;6.67;5.67;;;15.10;69.50;;;;;;5093713;28;20505;-73
2021/09/21 06:20:05;;;;;;;14.10;7.40;;;15.10;69.70;;;;;;5093607;28;20480;-74
2021/09/21 06:22:32;;;;;;;7.90;5.57;;;15.10;70.00;;;;;;5093662;28;20489;-74
2021/09/21 06:24:59;;;;;;;10.67;6.20;;;15.10;70.00;;;;;;5093680;28;20439;-73
2021/09/21 06:27:26;;;;;;;7.60;6.00;;;15.10;70.30;;;;;;5093718;28;20424;-73
2021/09/21 06:29:54;;;;;;;6.63;6.03;;;15.10;70.40;;;;;;5093652;28;20428;-73
2021/09/21 06:32:21;;;;;;;7.13;6.43;;;15.20;70.50;;;;;;5093524;28;20490;-73
2021/09/21 06:34:48;;;;;;;7.57;6.43;;;15.20;70.50;;;;;;5093546;28;20439;-73
2021/09/21 06:37:15;;;;;;;9.07;6.73;;;15.20;70.50;;;;;;5093554;28;20451;-74
2021/09/21 06:39:41;;;;;;;13.60;6.90;;;15.30;70.40;;;;;;5093449;28;20448;-73
2021/09/21 06:42:08;;;;;;;9.03;6.53;;;15.30;70.40;;;;;;5093448;28;20498;-74
2021/09/21 06:44:35;;;;;;;7.73;6.93;;;15.40;70.50;;;;;;5093184;28;20432;-73
2021/09/21 06:47:03;;;;;;;8.80;6.90;;;15.40;70.30;;;;;;5093426;28;20456;-74
2021/09/21 06:49:30;;;;;;;12.70;7.90;;;15.40;70.30;;;;;;5093535;28;20432;-74
2021/09/21 06:51:57;;;;;;;9.00;8.07;;;15.50;70.30;;;;;;5093433;28;20456;-74
2021/09/21 06:54:24;;;;;;;8.63;7.70;;;15.50;70.30;;;;;;5093370;28;20440;-74
2021/09/21 06:56:51;;;;;;;9.70;7.33;;;15.60;70.50;;;;;;5093360;28;20451;-74
2021/09/21 06:59:18;;;;;;;7.70;6.80;;;15.60;70.50;;;;;;5093381;28;20432;-74
2021/09/21 07:01:44;;;;;;;7.40;6.70;;;15.60;70.50;;;;;;5092964;28;20464;-74
2021/09/21 07:04:13;;;;;;;8.73;7.27;;;15.60;70.50;;;;;;5092861;28;20952;-74
2021/09/21 07:06:40;;;;;;;8.50;7.63;;;15.70;70.60;;;;;;5093371;28;20420;-74
2021/09/21 07:09:07;;;;;;;12.20;8.77;;;15.70;70.20;;;;;;5093189;28;20446;-73
2021/09/21 07:11:33;;;;;;;11.57;8.63;;;15.80;70.10;;;;;;5094095;28;20754;-74
2021/09/21 07:14:00;;;;;;;10.90;9.30;;;15.90;70.10;;;;;;5093138;28;20464;-74
2021/09/21 07:16:27;;;;;;;15.17;10.77;;;15.90;70.20;;;;;;5093218;28;20431;-74
2021/09/21 07:18:54;;;;;;;10.30;7.90;;;16.00;70.00;;;;;;5094421;28;20774;-74
2021/09/21 07:21:22;;;;;;;9.43;8.33;;;16.10;69.40;;;;;;5096888;28;20479;-74
2021/09/21 07:23:49;;;;;;;9.00;8.10;;;16.10;68.90;;;;;;5097033;28;20460;-74
2021/09/21 07:26:17;;;;;;;7.70;7.00;;;16.20;68.70;;;;;;5096990;28;20470;-74
2021/09/21 07:28:44;;;;;;;9.50;7.37;;;16.30;68.30;;;;;;5096887;28;20454;-74
2021/09/21 07:31:11;;;;;;;9.60;7.00;;;16.40;67.50;;;;;;5096833;28;20780;-73
2021/09/21 07:33:37;;;;;;;10.73;8.43;;;16.50;66.80;;;;;;5096776;28;20521;-73
2021/09/21 07:36:05;;;;;;;9.80;8.80;;;16.50;66.50;;;;;;5096709;28;20799;-74
2021/09/21 07:38:33;;;;;;;11.83;9.20;;;16.70;66.80;;;;;;5096432;28;20905;-74
2021/09/21 07:40:59;;;;;;;15.00;8.87;;;16.80;66.40;;;;;;5096237;28;20475;-74
2021/09/21 07:43:26;;;;;;;9.80;8.10;;;16.80;65.40;;;;;;5096313;28;20464;-74
2021/09/21 07:45:53;;;;;;;8.60;6.90;;;17.00;64.20;;;;;;5096299;28;20920;-74
2021/09/21 07:48:20;;;;;;;8.60;7.70;;;17.10;63.80;;;;;;5096526;28;20447;-74
2021/09/21 07:50:47;;;;;;;8.67;7.30;;;17.20;63.50;;;;;;5096505;28;20474;-74
2021/09/21 07:53:14;;;;;;;7.60;6.90;;;17.30;63.00;;;;;;5096034;28;20465;-74
2021/09/21 07:55:42;;;;;;;12.77;9.07;;;17.40;61.20;;;;;;5096312;28;20448;-74
2021/09/21 07:58:09;;;;;;;9.60;8.10;;;17.50;61.30;;;;;;5096343;28;20534;-74
2021/09/21 08:00:38;;;;;;;7.07;6.37;;;17.70;61.30;;;;;;5096156;28;20486;-74
2021/09/21 08:03:04;;;;;;;6.27;5.57;;;17.80;60.80;;;;;;5095919;28;20980;-74
2021/09/21 08:05:32;;;;;;;6.43;5.33;;;17.90;59.70;;;;;;5096165;28;20440;-74
2021/09/21 08:07:59;;;;;;;9.10;5.90;;;18.00;58.20;;;;;;5096096;28;20448;-74
2021/09/21 08:10:26;;;;;;;7.27;5.90;;;18.10;58.10;;;;;;5096058;28;20440;-74
2021/09/21 08:12:54;;;;;;;4.43;3.80;;;18.30;58.10;;;;;;5095958;28;20471;-73
2021/09/21 08:15:21;;;;;;;6.03;4.03;;;18.40;57.70;;;;;;5095959;28;20451;-74
2021/09/21 08:17:48;;;;;;;4.10;3.40;;;18.50;56.50;;;;;;5095991;28;20439;-74
2021/09/21 08:20:15;;;;;;;3.87;3.57;;;18.70;55.50;;;;;;5095496;28;20799;-73
2021/09/21 08:22:42;;;;;;;4.27;3.80;;;18.80;55.30;;;;;;5095900;28;20522;-73
2021/09/21 08:25:11;;;;;;;4.20;3.80;;;18.90;55.00;;;;;;5095538;28;20925;-73
2021/09/21 08:27:39;;;;;;;6.40;3.10;;;18.90;51.80;;;;;;5095850;28;20436;-73
2021/09/21 08:30:08;;;;;;;4.10;3.37;;;19.00;51.10;;;;;;5095055;28;20451;-73
2021/09/21 08:32:34;;;;;;;4.87;3.20;;;19.00;50.00;;;;;;5095315;28;20459;-73
2021/09/21 08:35:01;;;;;;;3.47;2.93;;;19.00;51.60;;;;;;5095737;28;20812;-74
2021/09/21 08:37:28;;;;;;;3.30;3.00;;;19.10;50.90;;;;;;5095511;28;20444;-73
2021/09/21 08:39:55;;;;;;;2.80;2.60;;;19.20;50.90;;;;;;5095538;28;20455;-73
2021/09/21 08:42:21;;;;;;;3.50;3.20;;;19.20;50.20;;;;;;5095388;28;20483;-74
2021/09/21 08:44:48;;;;;;;2.70;2.00;;;19.30;51.20;;;;;;5095466;28;20439;-74
2021/09/21 08:47:17;;;;;;;3.23;2.60;;;19.30;47.90;;;;;;5095082;28;20797;-74
2021/09/21 08:49:44;;;;;;;4.33;2.90;;;19.40;47.10;;;;;;5095040;28;20953;-74
2021/09/21 08:52:11;;;;;;;2.53;2.30;;;19.40;48.30;;;;;;5095209;28;20460;-74
2021/09/21 08:54:38;;;;;;;3.47;3.17;;;19.50;48.90;;;;;;5095295;28;20447;-73
2021/09/21 08:57:07;;;;;;;3.63;2.80;;;19.60;47.60;;;;;;5096039;28;20789;-73
2021/09/21 08:59:35;;;;;;;2.60;2.40;;;19.70;49.20;;;;;;5095124;28;20484;-74
2021/09/21 09:02:06;;;;;;;2.33;2.13;;;19.90;46.20;;;;;;5094801;28;20464;-74
2021/09/21 09:04:34;;;;;;;4.97;2.90;;;20.10;47.90;;;;;;5095145;28;20464;-73
2021/09/21 09:07:01;;;;;;;2.50;2.30;;;20.20;48.30;;;;;;5094995;28;20463;-74
2021/09/21 09:09:32;;;;;;;4.00;2.03;;;20.40;47.30;;;;;;5094989;28;20444;-74
2021/09/21 09:12:01;;;;;;;2.20;2.00;;;20.50;47.20;;;;;;5094551;28;20442;-74
2021/09/21 09:14:30;;;;;;;3.03;2.47;;;20.70;47.20;;;;;;5094891;28;20428;-74
2021/09/21 09:16:58;;;;;;;2.10;1.87;;;20.80;45.70;;;;;;5094920;28;20520;-74
2021/09/21 09:19:31;;;;;;;3.50;2.10;;;21.00;45.40;;;;;;5094961;28;20425;-74
2021/09/21 09:22:05;;;;;;;3.10;2.00;;;21.10;43.00;;;;;;5094691;28;20456;-74
2021/09/21 09:24:32;;;;;;;2.23;2.03;;;21.30;42.30;;;;;;5094765;28;20432;-73
2021/09/21 09:26:59;;;;;;;2.40;2.20;;;21.50;43.70;;;;;;5094414;28;20781;-74
2021/09/21 09:29:25;;;;;;;3.00;2.10;;;21.60;43.90;;;;;;5094657;28;20481;-74
2021/09/21 09:31:52;;;;;;;2.20;2.00;;;21.80;43.60;;;;;;5094222;28;20886;-74
2021/09/21 09:34:22;;;;;;;3.17;2.30;;;22.10;43.60;;;;;;5094541;28;20440;-74
2021/09/21 09:36:50;;;;;;;5.60;2.50;;;22.40;42.20;;;;;;5094559;28;20519;-74
2021/09/21 09:39:21;;;;;;;2.93;1.87;;;22.60;40.20;;;;;;5094006;28;20871;-74
2021/09/21 09:41:50;;;;;;;4.57;2.20;;;22.80;40.40;;;;;;5093059;28;20999;-74
2021/09/21 09:44:19;;;;;;;3.90;2.00;;;23.10;39.80;;;;;;5093854;28;20444;-74
2021/09/21 09:46:49;;;;;;;2.40;2.20;;;23.20;37.30;;;;;;5093950;28;20889;-74
2021/09/21 09:49:22;;;;;;;6.20;1.93;;;23.50;37.90;;;;;;5094230;28;20435;-74
2021/09/21 09:51:50;;;;;;;2.50;1.80;;;23.60;37.00;;;;;;5093605;28;20424;-75
2021/09/21 09:54:18;;;;;;;1.97;1.80;;;23.90;35.60;;;;;;5093813;28;20927;-74
2021/09/21 09:56:46;;;;;;;2.97;2.10;;;24.10;36.10;;;;;;5094057;28;20446;-73
2021/09/21 09:59:14;;;;;;;3.03;1.90;;;24.40;36.90;;;;;;5093811;28;20447;-73
2021/09/21 10:01:42;;;;;;;2.10;1.90;;;24.60;36.10;;;;;;5093571;28;20919;-73
2021/09/21 10:04:09;;;;;;;2.47;2.27;;;24.90;37.00;;;;;;5093530;28;20471;-73
2021/09/21 10:06:36;;;;;;;2.60;2.20;;;25.10;36.40;;;;;;5093819;28;20428;-73
2021/09/21 10:09:03;;;;;;;4.90;1.90;;;25.40;33.80;;;;;;5094514;28;20439;-73
2021/09/21 10:11:34;;;;;;;2.87;2.00;;;25.70;32.90;;;;;;5093423;28;20791;-73
2021/09/21 10:14:03;;;;;;;2.47;1.70;;;26.00;34.20;;;;;;5093724;28;20475;-73
2021/09/21 10:16:31;;;;;;;4.53;1.90;;;26.30;34.10;;;;;;5093792;28;20427;-74
2021/09/21 10:19:00;;;;;;;2.57;1.70;;;26.60;32.20;;;;;;5093887;28;20526;-74
2021/09/21 10:21:32;;;;;;;1.90;1.60;;;26.90;32.90;;;;;;5093688;28;20467;-74
2021/09/21 10:24:03;;;;;;;1.77;1.53;;;27.20;31.60;;;;;;5093691;28;20495;-75
2021/09/21 10:26:32;;;;;;;2.10;1.50;;;27.50;29.70;;;;;;5094274;28;20489;-74
2021/09/21 10:28:59;;;;;;;3.10;1.70;;;28.00;30.50;;;;;;5094103;28;20470;-74
2021/09/21 10:31:28;;;;;;;3.33;1.97;;;28.40;30.30;;;;;;5093620;28;20447;-72
2021/09/21 10:33:55;;;;;;;2.37;2.17;;;28.90;27.30;;;;;;5093252;28;20964;-72
2021/09/21 10:36:24;;;;;;;4.63;1.97;;;28.90;25.80;;;;;;5093591;28;20451;-72
2021/09/21 10:38:56;;;;;;;1.93;1.70;;;28.90;27.40;;;;;;5093515;28;20530;-72
2021/09/21 10:41:23;;;;;;;1.77;1.67;;;29.10;28.20;;;;;;5093499;28;20478;-73
2021/09/21 10:44:00;;;;;;;1.53;1.43;;;29.50;28.60;;;;;;5093496;28;20459;-72
2021/09/21 10:46:27;;;;;;;2.63;2.40;;;30.00;28.70;;;;;;5093500;28;20427;-73
2021/09/21 10:49:01;;;;;;;2.03;1.90;;;30.40;26.60;;;;;;5093201;28;20905;-73
2021/09/21 10:51:28;;;;;;;2.03;1.93;;;30.60;26.00;;;;;;5093475;28;20424;-73
2021/09/21 10:54:05;;;;;;;1.63;1.53;;;30.70;27.00;;;;;;5095069;28;20509;-73
2021/09/21 10:56:32;;;;;;;2.10;1.90;;;30.60;26.40;;;;;;5097517;28;20443;-73
2021/09/21 10:59:00;;;;;;;2.17;2.00;;;30.70;26.70;;;;;;5097581;28;20459;-74
2021/09/21 11:01:27;;;;;;;3.43;1.90;;;30.80;26.20;;;;;;5097384;28;20490;-73
2021/09/21 11:03:54;;;;;;;3.10;1.93;;;31.00;25.00;;;;;;5096954;28;21011;-73
2021/09/21 11:06:21;;;;;;;2.00;1.90;;;31.00;24.70;;;;;;5106469;22;20490;-70
2021/09/21 11:08:48;;;;;;;3.03;2.20;;;31.10;25.90;;;;;;5076840;28;20456;-71
2021/09/21 11:11:16;;;;;;;3.40;2.17;;;31.40;24.20;;;;;;5077126;28;20444;-71
2021/09/21 11:13:43;;;;;;;2.23;1.77;;;31.70;24.50;;;;;;5077003;28;20543;-71
2021/09/21 11:16:14;;;;;;;9.60;2.37;;;32.00;24.60;;;;;;5090053;28;20520;-71
2021/09/21 11:18:43;;;;;;;3.00;1.87;;;32.40;25.20;;;;;;5097353;28;20435;-70
2021/09/21 11:21:12;;;;;;;9.07;2.30;;;32.90;24.70;;;;;;5096790;28;20845;-70
2021/09/21 11:23:41;;;;;;;1.93;1.60;;;33.40;24.10;;;;;;5096916;28;20441;-70
2021/09/21 11:26:10;;;;;;;4.60;2.50;;;33.90;23.70;;;;;;5097167;28;20505;-71
2021/09/21 11:28:44;;;;;;;2.97;2.20;;;34.20;23.80;;;;;;5097132;28;20442;-71
2021/09/21 11:31:12;;;;;;;9.00;2.40;;;34.50;23.40;;;;;;5096969;28;20766;-71
2021/09/21 11:33:42;;;;;;;2.47;2.27;;;34.80;22.50;;;;;;5096924;28;20439;-71
2021/09/21 11:36:11;;;;;;;3.10;2.40;;;35.00;21.50;;;;;;5096842;28;20550;-71
2021/09/21 11:38:41;;;;;;;3.93;3.10;;;34.80;19.80;;;;;;5096866;28;20443;-71
2021/09/21 11:41:09;;;;;;;3.67;1.93;;;34.60;21.10;;;;;;5097397;28;20423;-71
2021/09/21 11:43:37;;;;;;;2.20;2.00;;;34.70;22.10;;;;;;5096290;28;20474;-71
2021/09/21 11:46:04;;;;;;;3.53;2.30;;;35.00;22.80;;;;;;5096598;28;20466;-71
2021/09/21 11:48:33;;;;;;;2.33;2.13;;;35.20;21.70;;;;;;5096632;28;20439;-71
2021/09/21 11:50:59;;;;;;;2.60;2.27;;;35.40;21.60;;;;;;5096246;28;20955;-71
2021/09/21 11:53:29;;;;;;;2.70;2.50;;;35.70;21.70;;;;;;5096542;28;20450;-71
2021/09/21 11:55:57;;;;;;;2.50;2.30;;;35.90;19.90;;;;;;5096435;28;20826;-71
2021/09/21 11:58:29;;;;;;;2.50;2.30;;;35.80;20.00;;;;;;5096450;28;20431;-71
2021/09/21 12:00:59;;;;;;;2.83;2.10;;;35.60;19.80;;;;;;5096029;28;20986;-71
2021/09/21 12:03:27;;;;;;;3.00;2.17;;;35.60;19.90;;;;;;5096305;28;20466;-71
2021/09/21 12:05:57;;;;;;;2.60;2.40;;;35.60;20.80;;;;;;5094881;28;20483;-71
2021/09/21 12:08:26;;;;;;;3.13;2.40;;;35.70;20.80;;;;;;5096229;28;20438;-71
2021/09/21 12:10:55;;;;;;;3.17;2.10;;;35.80;20.80;;;;;;5096252;28;20435;-71
2021/09/21 12:13:24;;;;;;;3.93;2.80;;;35.80;21.40;;;;;;5096137;28;20444;-71
2021/09/21 12:15:52;;;;;;;2.47;2.27;;;35.90;21.70;;;;;;5096010;28;20462;-71
2021/09/21 12:18:19;;;;;;;3.00;2.70;;;35.80;21.20;;;;;;5096106;28;20423;-71
2021/09/21 12:20:53;;;;;;;5.30;2.30;;;35.90;20.30;;;;;;5095964;28;20435;-71
2021/09/21 12:23:24;;;;;;;2.43;2.00;;;36.20;19.80;;;;;;5096033;28;20459;-71
2021/09/21 12:25:52;;;;;;;2.27;1.87;;;36.30;19.60;;;;;;5096003;28;20495;-71
2021/09/21 12:28:24;;;;;;;1.90;1.80;;;36.50;20.50;;;;;;5095870;28;20526;-71
2021/09/21 12:30:51;;;;;;;4.77;2.60;;;36.60;21.10;;;;;;5095763;28;20455;-71
2021/09/21 12:33:19;;;;;;;5.67;2.70;;;36.80;20.40;;;;;;5095631;28;20187;-71
2021/09/21 12:35:48;;;;;;;3.57;2.70;;;36.80;18.70;;;;;;5095172;28;20972;-69
2021/09/21 12:38:18;;;;;;;3.20;2.30;;;36.50;18.20;;;;;;5095636;28;20454;-69
2021/09/21 12:40:52;;;;;;;2.50;2.10;;;36.10;19.30;;;;;;5095712;28;20431;-69
2021/09/21 12:43:21;;;;;;;2.90;1.80;;;36.10;20.60;;;;;;5095576;28;20476;-69
2021/09/21 12:45:49;;;;;;;2.20;2.00;;;36.10;21.10;;;;;;5096125;28;20512;-69
2021/09/21 12:48:27;;;;;;;3.00;2.40;;;36.00;21.40;;;;;;5095154;28;20814;-69
2021/09/21 12:50:55;;;;;;;2.57;2.37;;;35.80;20.40;;;;;;5095168;28;20442;-69
2021/09/21 12:53:22;;;;;;;4.40;2.30;;;35.40;19.80;;;;;;5095001;28;20455;-69